createdAt,value
2018-12-05T00:00:31.555Z,1.93
2018-12-05T00:03:01.778Z,2.12
2018-12-05T00:05:43.317Z,2.07
2018-12-05T00:08:13.167Z,2.70
2018-12-05T00:11:03.745Z,2.37
2018-12-05T00:13:33.993Z,1.90
2018-12-05T00:16:03.962Z,3.00
2018-12-05T00:18:33.957Z,2.30
2018-12-05T00:21:03.934Z,2.10
2018-12-05T00:23:33.886Z,2.43
2018-12-05T00:26:04.105Z,2.95
2018-12-05T00:28:34.036Z,3.03
2018-12-05T00:31:03.948Z,2.67
2018-12-05T00:33:33.862Z,1.97
2018-12-05T00:36:04.002Z,3.00
2018-12-05T00:38:34.022Z,2.43
2018-12-05T00:41:04.030Z,2.20
2018-12-05T00:43:33.921Z,2.23
2018-12-05T00:46:03.862Z,1.80
2018-12-05T00:48:33.790Z,2.15
2018-12-05T00:51:03.745Z,2.23
2018-12-05T00:53:33.721Z,3.73
2018-12-05T00:56:03.697Z,2.00
2018-12-05T00:58:33.554Z,2.60
2018-12-05T01:01:03.535Z,2.13
2018-12-05T01:03:33.611Z,2.35
2018-12-05T01:06:03.526Z,1.97
2018-12-05T01:08:33.465Z,2.67
2018-12-05T01:13:45.175Z,1.63
2018-12-05T01:16:15.111Z,1.80
2018-12-05T01:18:45.016Z,1.77
2018-12-05T01:21:14.965Z,2.00
2018-12-05T01:23:44.877Z,3.03
2018-12-05T01:26:14.866Z,2.40
2018-12-05T01:28:44.761Z,2.43
2018-12-05T01:31:26.542Z,2.72
2018-12-05T01:33:56.420Z,2.17
2018-12-05T01:36:26.396Z,2.10
2018-12-05T01:38:56.376Z,2.10
2018-12-05T01:41:26.305Z,3.25
2018-12-05T01:43:56.186Z,2.20
2018-12-05T01:46:45.494Z,2.00
2018-12-05T01:49:15.372Z,1.98
2018-12-05T01:51:45.326Z,2.17
2018-12-05T01:54:15.281Z,1.80
2018-12-05T01:56:45.358Z,2.12
2018-12-05T01:59:15.336Z,2.20
2018-12-05T02:01:45.215Z,2.57
2018-12-05T02:04:15.122Z,2.17
2018-12-05T02:06:45.220Z,2.70
2018-12-05T02:09:15.092Z,1.80
2018-12-05T02:11:45.047Z,1.73
2018-12-05T02:14:14.959Z,2.27
2018-12-05T02:16:56.363Z,3.47
2018-12-05T02:19:26.271Z,2.03
2018-12-05T02:21:56.204Z,2.40
2018-12-05T02:24:26.853Z,1.60
2018-12-05T02:27:17.441Z,1.73
2018-12-05T02:30:06.271Z,2.17
2018-12-05T02:32:38.227Z,1.80
2018-12-05T02:38:40.035Z,3.13
2018-12-05T02:41:08.780Z,2.20
2018-12-05T02:43:37.582Z,2.00
2018-12-05T02:46:06.341Z,1.70
2018-12-05T02:48:35.251Z,1.82
2018-12-05T02:51:04.295Z,2.65
2018-12-05T02:53:33.339Z,2.10
2018-12-05T02:58:52.546Z,1.83
2018-12-05T03:01:21.351Z,2.00
2018-12-05T03:03:50.237Z,1.83
2018-12-05T03:06:19.110Z,1.50
2018-12-05T03:08:47.890Z,2.10
2018-12-05T03:11:17.388Z,1.70
2018-12-05T03:13:46.346Z,1.92
2018-12-05T03:16:15.142Z,1.50
2018-12-05T03:18:43.896Z,2.15
2018-12-05T03:21:12.990Z,1.93
2018-12-05T03:23:41.804Z,2.08
2018-12-05T03:26:10.835Z,1.30
2018-12-05T03:28:39.583Z,1.80
2018-12-05T03:31:08.336Z,2.27
2018-12-05T03:33:37.182Z,1.90
2018-12-05T03:36:05.958Z,1.93
2018-12-05T03:38:34.791Z,2.47
2018-12-05T03:41:04.113Z,2.27
2018-12-05T03:43:32.947Z,2.17
2018-12-05T03:46:02.947Z,2.53
2018-12-05T03:48:31.762Z,1.87
2018-12-05T03:51:00.692Z,2.30
2018-12-05T03:53:29.596Z,2.50
2018-12-05T03:55:58.497Z,1.67
2018-12-05T03:58:27.283Z,2.23
2018-12-05T04:00:56.001Z,1.75
2018-12-05T04:03:24.816Z,2.47
2018-12-05T04:05:53.823Z,2.00
2018-12-05T04:08:22.615Z,2.00
2018-12-05T04:10:51.750Z,1.77
2018-12-05T04:13:20.666Z,2.87
2018-12-05T04:15:49.523Z,2.30
2018-12-05T04:18:18.288Z,2.00
2018-12-05T04:20:47.076Z,2.08
2018-12-05T04:25:55.739Z,2.47
2018-12-05T04:28:24.501Z,1.72
2018-12-05T04:30:53.274Z,2.73
2018-12-05T04:33:24.019Z,2.45
2018-12-05T04:35:52.800Z,1.98
2018-12-05T04:38:21.649Z,2.87
2018-12-05T04:40:51.123Z,3.77
2018-12-05T04:43:20.050Z,2.50
2018-12-05T04:45:48.985Z,2.37
2018-12-05T04:48:17.763Z,2.27
2018-12-05T04:50:47.023Z,2.60
2018-12-05T04:53:15.777Z,3.50
2018-12-05T04:55:44.566Z,2.63
2018-12-05T04:58:13.357Z,2.77
2018-12-05T05:00:42.243Z,2.67
2018-12-05T05:03:10.998Z,2.07
2018-12-05T05:05:39.944Z,2.90
2018-12-05T05:08:08.850Z,2.22
2018-12-05T05:10:37.658Z,2.10
2018-12-05T05:13:06.458Z,2.17
2018-12-05T05:15:35.318Z,1.90
2018-12-05T05:18:04.085Z,3.72
2018-12-05T05:20:33.074Z,3.00
2018-12-05T05:23:02.927Z,2.60
2018-12-05T05:25:31.918Z,3.40
2018-12-05T05:28:00.849Z,2.80
2018-12-05T05:30:29.849Z,3.80
2018-12-05T05:32:58.671Z,3.10
2018-12-05T05:35:27.555Z,3.17
2018-12-05T05:37:56.331Z,2.70
2018-12-05T05:40:25.181Z,2.57
2018-12-05T05:42:54.059Z,2.73
2018-12-05T05:45:22.810Z,2.70
2018-12-05T05:47:51.538Z,2.40
2018-12-05T05:50:20.755Z,2.70
2018-12-05T05:52:49.586Z,3.00
2018-12-05T05:55:18.415Z,2.47
2018-12-05T05:57:47.480Z,2.67
2018-12-05T06:00:16.404Z,2.27
2018-12-05T06:02:45.168Z,2.65
2018-12-05T06:05:13.982Z,3.20
2018-12-05T06:07:42.759Z,4.20
2018-12-05T06:10:11.538Z,2.50
2018-12-05T06:12:40.411Z,3.57
2018-12-05T06:15:09.342Z,3.33
2018-12-05T06:17:38.127Z,2.70
2018-12-05T06:20:06.967Z,5.00
2018-12-05T06:22:35.690Z,3.02
2018-12-05T06:25:05.479Z,3.80
2018-12-05T06:27:34.499Z,4.00
2018-12-05T06:30:03.636Z,3.60
2018-12-05T06:32:32.530Z,3.63
2018-12-05T06:35:02.026Z,4.28
2018-12-05T06:37:30.781Z,4.05
2018-12-05T06:39:59.586Z,4.72
2018-12-05T06:42:28.559Z,4.07
2018-12-05T06:44:57.553Z,3.45
2018-12-05T06:47:27.899Z,4.30
2018-12-05T06:49:56.821Z,4.47
2018-12-05T06:52:26.126Z,3.83
2018-12-05T06:54:55.887Z,4.77
2018-12-05T06:57:24.610Z,4.23
2018-12-05T06:59:53.553Z,3.80
2018-12-05T07:02:22.287Z,4.53
2018-12-05T07:04:51.074Z,4.30
2018-12-05T07:07:19.916Z,2.85
2018-12-05T07:09:48.631Z,4.40
2018-12-05T07:12:17.326Z,3.12
2018-12-05T07:14:46.123Z,3.98
2018-12-05T07:17:14.987Z,4.17
2018-12-05T07:19:43.775Z,4.15
2018-12-05T07:22:12.475Z,3.73
2018-12-05T07:24:41.398Z,4.78
2018-12-05T07:27:10.165Z,3.97
2018-12-05T07:29:38.890Z,3.72
2018-12-05T07:32:07.802Z,4.03
2018-12-05T07:34:36.467Z,4.47
2018-12-05T07:37:05.231Z,3.60
2018-12-05T07:39:34.782Z,4.43
2018-12-05T07:42:03.898Z,3.40
2018-12-05T07:44:32.688Z,4.33
2018-12-05T07:47:02.062Z,4.23
2018-12-05T07:49:30.842Z,4.70
2018-12-05T07:52:00.755Z,3.13
2018-12-05T07:54:29.645Z,5.10
2018-12-05T07:56:58.468Z,4.10
2018-12-05T07:59:27.169Z,4.03
2018-12-05T08:01:55.918Z,4.87
2018-12-05T08:04:24.641Z,3.93
2018-12-05T08:06:56.586Z,4.03
2018-12-05T08:09:25.446Z,4.12
2018-12-05T08:11:54.472Z,5.30
2018-12-05T08:14:23.218Z,6.23
2018-12-05T08:16:51.986Z,5.07
2018-12-05T08:19:21.067Z,5.00
2018-12-05T08:21:49.942Z,5.67
2018-12-05T08:24:19.221Z,5.03
2018-12-05T08:26:48.866Z,5.40
2018-12-05T08:29:17.732Z,4.97
2018-12-05T08:31:46.482Z,5.53
2018-12-05T08:34:15.454Z,6.10
2018-12-05T08:36:44.177Z,5.67
2018-12-05T08:39:13.020Z,4.30
2018-12-05T08:41:41.835Z,5.90
2018-12-05T08:44:10.944Z,6.03
2018-12-05T08:46:39.730Z,5.77
2018-12-05T08:49:08.499Z,5.40
2018-12-05T08:51:37.362Z,4.83
2018-12-05T08:54:06.286Z,6.58
2018-12-05T08:56:35.347Z,6.35
2018-12-05T08:59:04.263Z,5.70
2018-12-05T09:01:33.411Z,6.37
2018-12-05T09:04:02.446Z,6.10
2018-12-05T09:09:13.647Z,4.53
2018-12-05T09:11:42.578Z,4.62
2018-12-05T09:14:11.509Z,6.20
2018-12-05T09:16:41.208Z,4.40
2018-12-05T09:19:10.071Z,6.40
2018-12-05T09:21:38.966Z,8.50
2018-12-05T09:24:07.786Z,6.60
2018-12-05T09:26:37.163Z,8.38
2018-12-05T09:29:06.384Z,4.90
2018-12-05T09:31:35.703Z,5.03
2018-12-05T09:34:05.025Z,6.25
2018-12-05T09:36:36.032Z,6.10
2018-12-05T09:39:08.726Z,5.90
2018-12-05T09:41:38.516Z,6.47
2018-12-05T09:44:07.743Z,6.27
2018-12-05T09:46:37.015Z,7.15
2018-12-05T09:49:06.361Z,5.57
2018-12-05T09:51:36.499Z,7.15
2018-12-05T09:54:05.944Z,6.40
2018-12-05T09:56:35.826Z,6.47
2018-12-05T09:59:04.907Z,5.90
2018-12-05T10:01:34.147Z,6.23
2018-12-05T10:04:03.650Z,6.60
2018-12-05T10:06:33.027Z,7.20
2018-12-05T10:09:04.526Z,5.97
2018-12-05T10:14:16.086Z,7.70
2018-12-05T10:16:46.054Z,7.20
2018-12-05T10:19:16.336Z,6.37
2018-12-05T10:21:45.384Z,5.80
2018-12-05T10:24:14.760Z,7.70
2018-12-05T10:26:45.368Z,8.40
2018-12-05T10:29:15.814Z,5.90
2018-12-05T10:31:44.778Z,6.15
2018-12-05T10:34:14.869Z,5.67
2018-12-05T10:36:44.905Z,7.25
2018-12-05T10:39:15.075Z,6.80
2018-12-05T10:41:46.166Z,7.22
2018-12-05T10:44:16.178Z,6.70
2018-12-05T10:46:45.814Z,6.92
2018-12-05T10:49:16.195Z,7.40
2018-12-05T10:51:46.330Z,7.80
2018-12-05T10:54:15.695Z,6.47
2018-12-05T10:56:46.006Z,5.17
2018-12-05T10:59:17.067Z,5.57
2018-12-05T11:01:51.772Z,5.80
2018-12-05T11:04:27.391Z,6.00
2018-12-05T11:07:02.464Z,6.17
2018-12-05T11:09:38.312Z,5.50
2018-12-05T11:12:12.972Z,5.28
2018-12-05T11:14:47.570Z,4.83
2018-12-05T11:17:23.463Z,5.40
2018-12-05T11:20:00.164Z,4.80
2018-12-05T11:22:35.536Z,5.37
2018-12-05T11:25:10.355Z,4.95
2018-12-05T11:27:41.063Z,5.00
2018-12-05T11:30:13.873Z,5.70
2018-12-05T11:32:44.253Z,5.23
2018-12-05T11:35:14.503Z,5.37
2018-12-05T11:37:44.879Z,5.42
2018-12-05T11:40:15.180Z,4.07
2018-12-05T11:42:45.483Z,3.87
2018-12-05T11:45:16.416Z,4.45
2018-12-05T11:47:46.585Z,4.05
2018-12-05T11:50:17.118Z,3.83
2018-12-05T11:52:48.206Z,3.60
2018-12-05T11:55:18.850Z,3.50
2018-12-05T11:57:47.919Z,5.47
2018-12-05T12:05:50.351Z,3.93
2018-12-05T12:08:20.643Z,3.20
2018-12-05T12:10:51.187Z,4.47
2018-12-05T12:13:21.427Z,5.28
2018-12-05T12:15:51.208Z,4.10
2018-12-05T12:18:21.769Z,4.80
2018-12-05T12:20:51.950Z,4.50
2018-12-05T12:23:22.020Z,4.50
2018-12-05T12:25:52.498Z,5.20
2018-12-05T12:28:22.818Z,3.55
2018-12-05T12:30:53.722Z,3.45
2018-12-05T12:33:24.162Z,3.97
2018-12-05T12:35:53.825Z,3.33
2018-12-05T12:38:22.837Z,3.40
2018-12-05T12:40:51.694Z,3.90
2018-12-05T12:43:22.003Z,3.13
2018-12-05T12:45:51.902Z,3.63
2018-12-05T12:48:21.855Z,3.08
2018-12-05T12:50:53.309Z,3.40
2018-12-05T12:53:23.556Z,3.90
2018-12-05T12:55:54.067Z,3.07
2018-12-05T12:58:24.053Z,3.50
2018-12-05T13:00:54.760Z,3.43
2018-12-05T13:03:25.043Z,2.87
2018-12-05T13:05:55.368Z,4.23
2018-12-05T13:08:25.934Z,2.73
2018-12-05T13:10:55.053Z,3.17
2018-12-05T13:13:25.191Z,3.90
2018-12-05T13:15:57.210Z,3.30
2018-12-05T13:18:27.617Z,3.97
2018-12-05T13:20:58.240Z,2.73
2018-12-05T13:23:28.999Z,2.52
2018-12-05T13:25:59.704Z,3.12
2018-12-05T13:28:30.201Z,3.00
2018-12-05T13:31:00.304Z,3.23
2018-12-05T13:33:31.498Z,2.83
2018-12-05T13:36:03.380Z,2.87
2018-12-05T13:41:30.359Z,3.33
2018-12-05T13:44:03.230Z,3.00
2018-12-05T13:46:37.480Z,3.40
2018-12-05T13:49:11.545Z,2.80
2018-12-05T13:51:43.573Z,2.67
2018-12-05T13:54:16.688Z,2.97
2018-12-05T13:59:29.899Z,2.57
2018-12-05T14:02:03.280Z,2.60
2018-12-05T14:04:32.337Z,2.93
2018-12-05T14:07:02.250Z,2.65
2018-12-05T14:09:31.924Z,3.00
2018-12-05T14:12:03.283Z,3.55
2018-12-05T14:14:33.674Z,2.47
2018-12-05T14:17:04.729Z,2.63
2018-12-05T14:19:35.297Z,2.47
2018-12-05T14:22:05.336Z,3.43
2018-12-05T14:24:36.182Z,3.00
2018-12-05T14:27:06.286Z,2.73
2018-12-05T14:29:35.329Z,2.87
2018-12-05T14:32:08.518Z,3.80
2018-12-05T14:34:40.578Z,3.00
2018-12-05T14:37:10.474Z,3.37
2018-12-05T14:39:40.710Z,2.90
2018-12-05T14:42:10.655Z,4.03
2018-12-05T14:44:40.794Z,2.70
2018-12-05T14:47:11.685Z,3.47
2018-12-05T14:49:41.819Z,3.57
2018-12-05T14:52:13.826Z,3.23
2018-12-05T14:54:44.122Z,3.73
2018-12-05T14:57:13.567Z,2.93
2018-12-05T14:59:44.179Z,2.50
2018-12-05T15:02:14.007Z,2.50
2018-12-05T15:04:44.536Z,2.50
2018-12-05T15:07:14.626Z,2.03
2018-12-05T15:09:45.018Z,2.73
2018-12-05T15:12:15.490Z,2.50
2018-12-05T15:14:45.726Z,1.77
2018-12-05T15:17:16.681Z,2.15
2018-12-05T15:19:47.698Z,2.12
2018-12-05T15:22:19.081Z,2.30
2018-12-05T15:24:53.804Z,3.07
2018-12-05T15:27:24.567Z,2.63
2018-12-05T15:29:55.939Z,2.20
2018-12-05T15:32:27.916Z,2.37
2018-12-05T15:34:58.915Z,1.97
2018-12-05T15:37:29.619Z,2.33
2018-12-05T15:39:59.933Z,2.10
2018-12-05T15:42:32.653Z,3.10
2018-12-05T15:45:04.733Z,2.87
2018-12-05T15:47:34.928Z,2.60
2018-12-05T15:50:06.773Z,2.40
2018-12-05T15:55:22.354Z,2.63
2018-12-05T15:57:51.963Z,1.80
2018-12-05T16:00:23.200Z,2.53
2018-12-05T16:02:53.715Z,2.10
2018-12-05T16:05:25.271Z,2.40
2018-12-05T16:07:56.048Z,1.95
2018-12-05T16:10:26.489Z,1.90
2018-12-05T16:12:57.567Z,1.82
2018-12-05T16:15:27.812Z,2.00
2018-12-05T16:17:58.495Z,2.13
2018-12-05T16:20:28.799Z,2.45
2018-12-05T16:22:59.305Z,2.50
2018-12-05T16:25:29.704Z,2.00
2018-12-05T16:27:59.931Z,3.57
2018-12-05T16:30:30.686Z,2.20
2018-12-05T16:33:00.061Z,2.47
2018-12-05T16:35:30.124Z,1.80
2018-12-05T16:38:01.368Z,2.10
2018-12-05T16:43:17.821Z,2.23
2018-12-05T16:45:50.954Z,2.70
2018-12-05T16:48:21.808Z,2.10
2018-12-05T16:50:51.997Z,1.72
2018-12-05T16:56:03.854Z,2.70
2018-12-05T16:58:33.230Z,2.90
2018-12-05T17:06:03.905Z,2.53
2018-12-05T17:08:34.045Z,1.80
2018-12-05T17:11:05.029Z,2.83
2018-12-05T17:13:36.724Z,2.40
2018-12-05T17:16:06.220Z,2.27
2018-12-05T17:18:36.171Z,2.80
2018-12-05T17:21:06.212Z,2.90
2018-12-05T17:23:37.574Z,3.00
2018-12-05T17:26:07.876Z,2.40
2018-12-05T17:28:38.249Z,2.62
2018-12-05T17:31:11.071Z,2.27
2018-12-05T17:33:42.981Z,3.12
2018-12-05T17:36:14.335Z,2.33
2018-12-05T17:38:44.363Z,2.50
2018-12-05T17:41:14.707Z,2.67
2018-12-05T17:43:44.686Z,2.73
2018-12-05T17:46:15.472Z,2.50
2018-12-05T17:48:47.051Z,2.37
2018-12-05T17:51:16.447Z,2.10
2018-12-05T17:53:47.448Z,3.50
2018-12-05T17:56:17.126Z,3.52
2018-12-05T17:58:48.554Z,2.42
2018-12-05T18:01:18.232Z,3.43
2018-12-05T18:03:49.886Z,2.80
2018-12-05T18:06:19.789Z,2.10
2018-12-05T18:08:51.253Z,2.53
2018-12-05T18:11:25.561Z,2.10
2018-12-05T18:13:55.542Z,2.12
2018-12-05T18:16:26.346Z,2.80
2018-12-05T18:18:58.354Z,2.23
2018-12-05T18:21:35.899Z,2.73
2018-12-05T18:24:08.423Z,3.07
2018-12-05T18:26:40.503Z,2.30
2018-12-05T18:29:10.173Z,2.70
2018-12-05T18:49:54.171Z,2.67
2018-12-05T18:52:29.796Z,2.75
2018-12-05T18:55:01.548Z,2.75
2018-12-05T18:57:32.899Z,2.30
2018-12-05T19:00:06.544Z,3.07
2018-12-05T19:02:38.840Z,2.60
2018-12-05T19:05:09.540Z,2.40
2018-12-05T19:07:40.433Z,3.10
2018-12-05T19:10:10.387Z,3.03
2018-12-05T19:15:31.485Z,2.57
2018-12-05T19:18:05.272Z,2.40
2018-12-05T19:20:35.835Z,3.70
2018-12-05T19:23:05.493Z,3.20
2018-12-05T19:25:36.498Z,3.03
2018-12-05T19:28:08.035Z,3.40
2018-12-05T19:30:39.225Z,3.17
2018-12-05T19:33:09.738Z,2.10
2018-12-05T19:35:40.527Z,2.70
2018-12-05T19:38:10.549Z,2.83
2018-12-05T19:40:43.487Z,3.10
2018-12-05T19:43:14.018Z,2.53
2018-12-05T19:45:44.348Z,2.53
2018-12-05T19:48:15.020Z,3.10
2018-12-05T19:50:45.225Z,2.53
2018-12-05T19:53:16.821Z,2.43
2018-12-05T19:55:48.004Z,2.50
2018-12-05T19:58:17.989Z,2.70
2018-12-05T20:00:50.042Z,2.40
2018-12-05T20:03:19.924Z,2.70
2018-12-05T20:05:52.667Z,3.45
2018-12-05T20:08:25.353Z,2.25
2018-12-05T20:10:57.147Z,2.27
2018-12-05T20:13:28.380Z,2.93
2018-12-05T20:16:02.444Z,3.00
2018-12-05T20:18:38.189Z,2.40
2018-12-05T20:21:21.014Z,3.23
2018-12-05T20:23:54.090Z,3.74
2018-12-05T20:26:30.690Z,3.27
2018-12-05T20:29:02.526Z,3.43
2018-12-05T20:31:32.893Z,3.03
2018-12-05T20:34:05.442Z,2.93
2018-12-05T20:36:37.401Z,4.15
2018-12-05T20:39:13.404Z,3.40
2018-12-05T20:41:43.855Z,3.00
2018-12-05T20:44:14.848Z,2.90
2018-12-05T20:46:55.077Z,3.40
2018-12-05T20:49:31.049Z,2.70
2018-12-05T20:52:07.988Z,3.50
2018-12-05T20:55:06.160Z,4.40
2018-12-05T20:57:40.331Z,3.37
2018-12-05T21:00:10.942Z,3.30
2018-12-05T21:02:43.081Z,3.80
2018-12-05T21:05:13.802Z,3.63
2018-12-05T21:07:48.835Z,2.77
2018-12-05T21:10:19.526Z,3.87
2018-12-05T21:12:49.477Z,3.57
2018-12-05T21:15:23.403Z,4.05
2018-12-05T21:17:57.375Z,3.47
2018-12-05T21:20:28.419Z,3.67
2018-12-05T21:23:00.443Z,3.95
2018-12-05T21:25:37.592Z,3.60
2018-12-05T21:28:11.218Z,2.93
2018-12-05T21:30:42.179Z,3.60
2018-12-05T21:33:16.230Z,3.50
2018-12-05T21:35:57.508Z,3.70
2018-12-05T21:38:35.066Z,4.45
2018-12-05T21:41:09.268Z,4.03
2018-12-05T21:43:43.568Z,4.50
2018-12-05T21:46:15.834Z,3.65
2018-12-05T21:48:54.820Z,3.70
2018-12-05T21:51:28.047Z,3.30
2018-12-05T21:54:06.352Z,3.23
2018-12-05T21:56:43.686Z,3.92
2018-12-05T21:59:20.102Z,4.05
2018-12-05T22:01:51.360Z,4.10
2018-12-05T22:04:22.538Z,4.22
2018-12-05T22:06:53.162Z,3.62
2018-12-05T22:09:27.210Z,4.10
2018-12-05T22:11:58.711Z,3.97
2018-12-05T22:14:30.445Z,3.90
2018-12-05T22:17:02.742Z,4.03
2018-12-05T22:19:32.755Z,4.03
2018-12-05T22:22:04.005Z,3.67
2018-12-05T22:24:38.391Z,3.83
2018-12-05T22:30:28.448Z,3.90
2018-12-05T22:35:50.115Z,3.90
2018-12-05T22:38:21.240Z,3.40
2018-12-05T22:40:58.687Z,4.53
2018-12-05T22:43:29.703Z,4.40
2018-12-05T22:46:02.308Z,4.00
2018-12-05T22:48:37.353Z,4.20
2018-12-05T22:51:09.287Z,3.97
2018-12-05T22:53:40.031Z,3.30
2018-12-05T22:56:09.627Z,3.23
2018-12-05T22:58:39.550Z,4.00
2018-12-05T23:01:11.020Z,3.30
2018-12-05T23:03:41.115Z,3.60
2018-12-05T23:06:12.688Z,4.17
2018-12-05T23:08:46.071Z,4.10
2018-12-05T23:11:20.533Z,3.60
2018-12-05T23:16:45.277Z,4.20
2018-12-05T23:19:24.673Z,4.87
2018-12-05T23:21:59.714Z,3.50
2018-12-05T23:24:43.370Z,4.73
2018-12-05T23:27:20.662Z,3.60
2018-12-05T23:29:55.997Z,4.10
2018-12-05T23:32:32.832Z,4.07
2018-12-05T23:35:09.643Z,4.22
2018-12-05T23:37:44.095Z,4.30
2018-12-05T23:40:22.100Z,4.37
2018-12-05T23:42:56.229Z,4.47
2018-12-05T23:45:30.361Z,3.85
2018-12-05T23:48:07.477Z,3.90
2018-12-05T23:50:53.969Z,4.60
2018-12-05T23:53:29.398Z,4.03
2018-12-05T23:56:02.703Z,4.72
2018-12-05T23:58:37.019Z,4.43
